sensor_id;sensor_type;location;lat;lon;timestamp;temperature;humidity
4505;DHT22;2265;48.794;9.520;2023-11-21T00:00:19;9.60;98.00
4505;DHT22;2265;48.794;9.520;2023-11-21T00:02:48;9.50;98.00
4505;DHT22;2265;48.794;9.520;2023-11-21T00:05:15;9.50;98.00
4505;DHT22;2265;48.794;9.520;2023-11-21T00:07:42;9.50;98.00
4505;DHT22;2265;48.794;9.520;2023-11-21T00:10:11;9.50;98.00
4505;DHT22;2265;48.794;9.520;2023-11-21T00:12:39;9.50;98.00
4505;DHT22;2265;48.794;9.520;2023-11-21T00:15:10;9.50;98.00
4505;DHT22;2265;48.794;9.520;2023-11-21T00:17:39;9.50;98.00
4505;DHT22;2265;48.794;9.520;2023-11-21T00:20:07;9.50;98.00
4505;DHT22;2265;48.794;9.520;2023-11-21T00:22:35;9.50;98.00
4505;DHT22;2265;48.794;9.520;2023-11-21T00:25:02;9.60;98.00
4505;DHT22;2265;48.794;9.520;2023-11-21T00:27:29;9.60;98.00
4505;DHT22;2265;48.794;9.520;2023-11-21T00:29:56;9.70;98.00
4505;DHT22;2265;48.794;9.520;2023-11-21T00:32:23;9.70;98.00
4505;DHT22;2265;48.794;9.520;2023-11-21T00:34:51;9.60;98.00
4505;DHT22;2265;48.794;9.520;2023-11-21T00:37:20;9.50;98.00
4505;DHT22;2265;48.794;9.520;2023-11-21T00:39:47;9.50;98.00
4505;DHT22;2265;48.794;9.520;2023-11-21T00:42:14;9.60;98.00
4505;DHT22;2265;48.794;9.520;2023-11-21T00:44:41;9.60;98.00
4505;DHT22;2265;48.794;9.520;2023-11-21T00:47:08;9.70;98.00
4505;DHT22;2265;48.794;9.520;2023-11-21T00:49:36;9.60;98.00
4505;DHT22;2265;48.794;9.520;2023-11-21T00:52:06;9.50;98.00
4505;DHT22;2265;48.794;9.520;2023-11-21T00:54:34;9.60;98.00
4505;DHT22;2265;48.794;9.520;2023-11-21T00:57:01;9.60;98.00
4505;DHT22;2265;48.794;9.520;2023-11-21T00:59:29;9.70;98.00
4505;DHT22;2265;48.794;9.520;2023-11-21T01:01:56;9.70;98.00
4505;DHT22;2265;48.794;9.520;2023-11-21T01:04:26;9.60;98.00
4505;DHT22;2265;48.794;9.520;2023-11-21T01:06:53;9.70;98.00
4505;DHT22;2265;48.794;9.520;2023-11-21T01:09:21;9.70;98.00
4505;DHT22;2265;48.794;9.520;2023-11-21T01:11:49;9.60;98.00
4505;DHT22;2265;48.794;9.520;2023-11-21T01:14:17;9.70;98.00
4505;DHT22;2265;48.794;9.520;2023-11-21T01:16:44;9.60;98.00
4505;DHT22;2265;48.794;9.520;2023-11-21T01:19:11;9.50;98.00
4505;DHT22;2265;48.794;9.520;2023-11-21T01:21:38;9.50;98.00
4505;DHT22;2265;48.794;9.520;2023-11-21T01:24:06;9.50;98.00
4505;DHT22;2265;48.794;9.520;2023-11-21T01:26:35;9.60;98.00
4505;DHT22;2265;48.794;9.520;2023-11-21T01:29:02;9.50;98.00
4505;DHT22;2265;48.794;9.520;2023-11-21T01:31:30;9.60;98.00
4505;DHT22;2265;48.794;9.520;2023-11-21T01:33:57;9.70;98.00
4505;DHT22;2265;48.794;9.520;2023-11-21T01:36:30;9.80;98.00
4505;DHT22;2265;48.794;9.520;2023-11-21T01:38:59;9.70;98.00
4505;DHT22;2265;48.794;9.520;2023-11-21T01:41:27;9.70;98.00
4505;DHT22;2265;48.794;9.520;2023-11-21T01:43:55;9.60;98.00
4505;DHT22;2265;48.794;9.520;2023-11-21T01:46:24;9.60;98.00
4505;DHT22;2265;48.794;9.520;2023-11-21T01:48:51;9.60;98.00
4505;DHT22;2265;48.794;9.520;2023-11-21T01:51:19;9.50;98.00
4505;DHT22;2265;48.794;9.520;2023-11-21T01:53:48;9.50;98.00
4505;DHT22;2265;48.794;9.520;2023-11-21T01:56:16;9.50;98.00
4505;DHT22;2265;48.794;9.520;2023-11-21T01:58:44;9.60;98.00
4505;DHT22;2265;48.794;9.520;2023-11-21T02:01:14;9.50;98.00
4505;DHT22;2265;48.794;9.520;2023-11-21T02:03:41;9.40;98.00
4505;DHT22;2265;48.794;9.520;2023-11-21T02:06:08;9.40;98.00
4505;DHT22;2265;48.794;9.520;2023-11-21T02:08:35;9.40;98.00
4505;DHT22;2265;48.794;9.520;2023-11-21T02:11:04;9.40;98.00
4505;DHT22;2265;48.794;9.520;2023-11-21T02:13:31;9.50;98.00
4505;DHT22;2265;48.794;9.520;2023-11-21T02:15:59;9.50;98.00
4505;DHT22;2265;48.794;9.520;2023-11-21T02:18:28;9.60;98.00
4505;DHT22;2265;48.794;9.520;2023-11-21T02:20:56;9.60;98.00
4505;DHT22;2265;48.794;9.520;2023-11-21T02:23:25;9.50;98.00
4505;DHT22;2265;48.794;9.520;2023-11-21T02:25:54;9.60;98.00
4505;DHT22;2265;48.794;9.520;2023-11-21T02:28:21;9.60;98.00
4505;DHT22;2265;48.794;9.520;2023-11-21T02:30:51;9.70;98.00
4505;DHT22;2265;48.794;9.520;2023-11-21T02:33:21;9.80;98.00
4505;DHT22;2265;48.794;9.520;2023-11-21T02:35:48;9.70;98.00
4505;DHT22;2265;48.794;9.520;2023-11-21T02:38:17;9.50;98.00
4505;DHT22;2265;48.794;9.520;2023-11-21T02:40:46;9.40;98.00
4505;DHT22;2265;48.794;9.520;2023-11-21T02:43:20;9.50;98.00
4505;DHT22;2265;48.794;9.520;2023-11-21T02:45:47;9.40;98.00
4505;DHT22;2265;48.794;9.520;2023-11-21T02:48:14;9.40;98.00
4505;DHT22;2265;48.794;9.520;2023-11-21T02:50:41;9.40;98.00
4505;DHT22;2265;48.794;9.520;2023-11-21T02:53:09;9.40;98.00
4505;DHT22;2265;48.794;9.520;2023-11-21T02:55:36;9.40;98.00
4505;DHT22;2265;48.794;9.520;2023-11-21T02:58:06;9.40;98.00
4505;DHT22;2265;48.794;9.520;2023-11-21T03:00:34;9.50;98.00
4505;DHT22;2265;48.794;9.520;2023-11-21T03:03:01;9.60;98.00
4505;DHT22;2265;48.794;9.520;2023-11-21T03:05:28;9.50;98.00
4505;DHT22;2265;48.794;9.520;2023-11-21T03:07:55;9.60;98.00
4505;DHT22;2265;48.794;9.520;2023-11-21T03:10:22;9.70;98.00
4505;DHT22;2265;48.794;9.520;2023-11-21T03:12:50;9.60;98.00
4505;DHT22;2265;48.794;9.520;2023-11-21T03:15:18;9.70;98.00
4505;DHT22;2265;48.794;9.520;2023-11-21T03:17:45;9.70;98.00
4505;DHT22;2265;48.794;9.520;2023-11-21T03:20:15;9.70;98.00
4505;DHT22;2265;48.794;9.520;2023-11-21T03:22:43;9.80;98.00
4505;DHT22;2265;48.794;9.520;2023-11-21T03:25:10;9.80;98.00
4505;DHT22;2265;48.794;9.520;2023-11-21T03:27:37;9.60;98.00
4505;DHT22;2265;48.794;9.520;2023-11-21T03:30:07;9.60;98.00
4505;DHT22;2265;48.794;9.520;2023-11-21T03:32:36;9.50;98.00
4505;DHT22;2265;48.794;9.520;2023-11-21T03:35:05;9.40;98.00
4505;DHT22;2265;48.794;9.520;2023-11-21T03:37:33;9.40;98.00
4505;DHT22;2265;48.794;9.520;2023-11-21T03:40:00;9.30;98.00
4505;DHT22;2265;48.794;9.520;2023-11-21T03:42:29;9.40;98.00
4505;DHT22;2265;48.794;9.520;2023-11-21T03:44:56;9.50;98.00
4505;DHT22;2265;48.794;9.520;2023-11-21T03:47:23;9.50;98.00
4505;DHT22;2265;48.794;9.520;2023-11-21T03:49:52;9.50;98.00
4505;DHT22;2265;48.794;9.520;2023-11-21T03:52:19;9.50;98.00
4505;DHT22;2265;48.794;9.520;2023-11-21T03:54:46;9.60;98.00
4505;DHT22;2265;48.794;9.520;2023-11-21T03:57:13;9.70;98.00
4505;DHT22;2265;48.794;9.520;2023-11-21T03:59:40;9.50;98.00
4505;DHT22;2265;48.794;9.520;2023-11-21T04:02:08;9.40;98.00
4505;DHT22;2265;48.794;9.520;2023-11-21T04:04:35;9.40;98.00
4505;DHT22;2265;48.794;9.520;2023-11-21T04:07:04;9.50;98.00
4505;DHT22;2265;48.794;9.520;2023-11-21T04:09:31;9.50;98.00
4505;DHT22;2265;48.794;9.520;2023-11-21T04:11:58;9.40;98.00
4505;DHT22;2265;48.794;9.520;2023-11-21T04:14:25;9.50;98.00
4505;DHT22;2265;48.794;9.520;2023-11-21T04:16:52;9.40;98.00
4505;DHT22;2265;48.794;9.520;2023-11-21T04:19:20;9.30;98.00
4505;DHT22;2265;48.794;9.520;2023-11-21T04:21:47;9.20;98.00
4505;DHT22;2265;48.794;9.520;2023-11-21T04:24:15;9.30;98.00
4505;DHT22;2265;48.794;9.520;2023-11-21T04:26:43;9.40;98.00
4505;DHT22;2265;48.794;9.520;2023-11-21T04:29:10;9.50;98.00
4505;DHT22;2265;48.794;9.520;2023-11-21T04:31:37;9.50;98.00
4505;DHT22;2265;48.794;9.520;2023-11-21T04:34:04;9.70;98.00
4505;DHT22;2265;48.794;9.520;2023-11-21T04:36:31;9.70;98.00
4505;DHT22;2265;48.794;9.520;2023-11-21T04:39:00;9.60;98.00
4505;DHT22;2265;48.794;9.520;2023-11-21T04:41:29;9.60;98.00
4505;DHT22;2265;48.794;9.520;2023-11-21T04:43:57;9.60;98.00
4505;DHT22;2265;48.794;9.520;2023-11-21T04:46:24;9.50;98.00
4505;DHT22;2265;48.794;9.520;2023-11-21T04:48:51;9.40;98.00
4505;DHT22;2265;48.794;9.520;2023-11-21T04:51:18;9.50;98.00
4505;DHT22;2265;48.794;9.520;2023-11-21T04:53:45;9.40;98.00
4505;DHT22;2265;48.794;9.520;2023-11-21T04:56:13;9.40;98.00
4505;DHT22;2265;48.794;9.520;2023-11-21T04:58:43;9.50;98.00
4505;DHT22;2265;48.794;9.520;2023-11-21T05:01:10;9.50;98.00
4505;DHT22;2265;48.794;9.520;2023-11-21T05:03:39;9.50;98.00
4505;DHT22;2265;48.794;9.520;2023-11-21T05:06:09;9.50;98.00
4505;DHT22;2265;48.794;9.520;2023-11-21T05:08:36;9.40;98.00
4505;DHT22;2265;48.794;9.520;2023-11-21T05:11:03;9.40;98.00
4505;DHT22;2265;48.794;9.520;2023-11-21T05:13:34;9.40;98.00
4505;DHT22;2265;48.794;9.520;2023-11-21T05:16:09;9.40;98.00
4505;DHT22;2265;48.794;9.520;2023-11-21T05:18:37;9.30;98.00
4505;DHT22;2265;48.794;9.520;2023-11-21T05:21:04;9.20;98.00
4505;DHT22;2265;48.794;9.520;2023-11-21T05:23:32;9.20;98.00
4505;DHT22;2265;48.794;9.520;2023-11-21T05:26:00;9.20;98.00
4505;DHT22;2265;48.794;9.520;2023-11-21T05:28:27;9.30;98.00
4505;DHT22;2265;48.794;9.520;2023-11-21T05:30:55;9.20;98.00
4505;DHT22;2265;48.794;9.520;2023-11-21T05:33:23;9.10;98.00
4505;DHT22;2265;48.794;9.520;2023-11-21T05:36:00;9.20;98.00
4505;DHT22;2265;48.794;9.520;2023-11-21T05:38:27;9.20;98.00
4505;DHT22;2265;48.794;9.520;2023-11-21T05:40:55;9.20;98.00
4505;DHT22;2265;48.794;9.520;2023-11-21T05:43:24;9.10;98.00
4505;DHT22;2265;48.794;9.520;2023-11-21T05:45:51;9.10;98.00
4505;DHT22;2265;48.794;9.520;2023-11-21T05:48:18;9.00;98.00
4505;DHT22;2265;48.794;9.520;2023-11-21T05:50:48;9.00;98.00
4505;DHT22;2265;48.794;9.520;2023-11-21T05:53:15;9.00;98.00
4505;DHT22;2265;48.794;9.520;2023-11-21T05:55:42;9.00;98.00
4505;DHT22;2265;48.794;9.520;2023-11-21T05:58:09;9.10;98.00
4505;DHT22;2265;48.794;9.520;2023-11-21T06:00:37;9.20;98.00
4505;DHT22;2265;48.794;9.520;2023-11-21T06:03:04;9.10;98.00
4505;DHT22;2265;48.794;9.520;2023-11-21T06:05:33;9.00;98.00
4505;DHT22;2265;48.794;9.520;2023-11-21T06:08:01;9.00;98.00
4505;DHT22;2265;48.794;9.520;2023-11-21T06:10:28;9.00;98.00
4505;DHT22;2265;48.794;9.520;2023-11-21T06:12:55;8.90;98.00
4505;DHT22;2265;48.794;9.520;2023-11-21T06:15:23;8.90;98.00
4505;DHT22;2265;48.794;9.520;2023-11-21T06:17:51;8.90;98.00
4505;DHT22;2265;48.794;9.520;2023-11-21T06:20:19;8.90;98.00
4505;DHT22;2265;48.794;9.520;2023-11-21T06:22:47;9.00;98.00
4505;DHT22;2265;48.794;9.520;2023-11-21T06:25:17;8.90;98.00
4505;DHT22;2265;48.794;9.520;2023-11-21T06:27:46;8.80;98.00
4505;DHT22;2265;48.794;9.520;2023-11-21T06:30:14;8.80;98.00
4505;DHT22;2265;48.794;9.520;2023-11-21T06:32:42;8.80;98.00
4505;DHT22;2265;48.794;9.520;2023-11-21T06:35:12;8.80;98.00
4505;DHT22;2265;48.794;9.520;2023-11-21T06:37:41;8.90;98.00
4505;DHT22;2265;48.794;9.520;2023-11-21T06:40:14;9.00;98.00
4505;DHT22;2265;48.794;9.520;2023-11-21T06:42:43;9.10;98.00
4505;DHT22;2265;48.794;9.520;2023-11-21T06:45:11;9.10;98.00
4505;DHT22;2265;48.794;9.520;2023-11-21T06:47:39;9.00;98.00
4505;DHT22;2265;48.794;9.520;2023-11-21T06:50:06;9.10;98.00
4505;DHT22;2265;48.794;9.520;2023-11-21T06:52:34;9.30;98.00
4505;DHT22;2265;48.794;9.520;2023-11-21T06:55:01;9.10;98.00
4505;DHT22;2265;48.794;9.520;2023-11-21T06:57:28;9.10;98.00
4505;DHT22;2265;48.794;9.520;2023-11-21T06:59:57;9.00;98.00
4505;DHT22;2265;48.794;9.520;2023-11-21T07:02:24;8.90;98.00
4505;DHT22;2265;48.794;9.520;2023-11-21T07:04:53;8.90;98.00
4505;DHT22;2265;48.794;9.520;2023-11-21T07:07:21;8.90;98.00
4505;DHT22;2265;48.794;9.520;2023-11-21T07:09:48;8.90;98.00
4505;DHT22;2265;48.794;9.520;2023-11-21T07:12:15;8.90;98.00
4505;DHT22;2265;48.794;9.520;2023-11-21T07:14:49;9.10;98.00
4505;DHT22;2265;48.794;9.520;2023-11-21T07:17:17;9.30;98.00
4505;DHT22;2265;48.794;9.520;2023-11-21T07:19:44;9.30;98.00
4505;DHT22;2265;48.794;9.520;2023-11-21T07:22:11;9.40;98.00
4505;DHT22;2265;48.794;9.520;2023-11-21T07:24:39;9.40;98.00
4505;DHT22;2265;48.794;9.520;2023-11-21T07:27:06;9.30;98.00
4505;DHT22;2265;48.794;9.520;2023-11-21T07:29:33;9.20;98.00
4505;DHT22;2265;48.794;9.520;2023-11-21T07:32:00;9.20;98.00
4505;DHT22;2265;48.794;9.520;2023-11-21T07:34:29;9.20;98.00
4505;DHT22;2265;48.794;9.520;2023-11-21T07:36:57;9.30;98.00
4505;DHT22;2265;48.794;9.520;2023-11-21T07:39:24;9.30;98.00
4505;DHT22;2265;48.794;9.520;2023-11-21T07:41:51;9.30;98.00
4505;DHT22;2265;48.794;9.520;2023-11-21T07:44:18;9.30;98.00
4505;DHT22;2265;48.794;9.520;2023-11-21T07:46:45;9.20;98.00
4505;DHT22;2265;48.794;9.520;2023-11-21T07:49:13;9.20;98.00
4505;DHT22;2265;48.794;9.520;2023-11-21T07:51:43;9.20;98.00
4505;DHT22;2265;48.794;9.520;2023-11-21T07:54:11;9.20;98.00
4505;DHT22;2265;48.794;9.520;2023-11-21T07:56:38;9.30;98.00
4505;DHT22;2265;48.794;9.520;2023-11-21T07:59:05;9.40;98.00
4505;DHT22;2265;48.794;9.520;2023-11-21T08:01:32;9.40;98.00
4505;DHT22;2265;48.794;9.520;2023-11-21T08:03:59;9.40;98.00
4505;DHT22;2265;48.794;9.520;2023-11-21T08:06:29;9.50;98.00
4505;DHT22;2265;48.794;9.520;2023-11-21T08:08:58;9.60;98.00
4505;DHT22;2265;48.794;9.520;2023-11-21T08:11:34;9.60;98.00
4505;DHT22;2265;48.794;9.520;2023-11-21T08:14:01;9.60;98.00
4505;DHT22;2265;48.794;9.520;2023-11-21T08:16:28;9.60;98.00
4505;DHT22;2265;48.794;9.520;2023-11-21T08:18:55;9.70;98.00
4505;DHT22;2265;48.794;9.520;2023-11-21T08:21:22;9.70;98.00
4505;DHT22;2265;48.794;9.520;2023-11-21T08:23:50;9.80;98.00
4505;DHT22;2265;48.794;9.520;2023-11-21T08:26:22;9.90;98.00
4505;DHT22;2265;48.794;9.520;2023-11-21T08:28:50;9.90;98.00
4505;DHT22;2265;48.794;9.520;2023-11-21T08:31:23;9.90;98.00
4505;DHT22;2265;48.794;9.520;2023-11-21T08:33:51;9.90;98.00
4505;DHT22;2265;48.794;9.520;2023-11-21T08:36:18;10.00;98.00
4505;DHT22;2265;48.794;9.520;2023-11-21T08:38:46;10.20;98.00
4505;DHT22;2265;48.794;9.520;2023-11-21T08:41:14;10.40;98.00
4505;DHT22;2265;48.794;9.520;2023-11-21T08:43:43;10.60;98.00
4505;DHT22;2265;48.794;9.520;2023-11-21T08:46:10;10.70;98.00
4505;DHT22;2265;48.794;9.520;2023-11-21T08:48:38;10.70;98.00
4505;DHT22;2265;48.794;9.520;2023-11-21T08:51:06;10.80;98.00
4505;DHT22;2265;48.794;9.520;2023-11-21T08:53:33;10.70;98.00
4505;DHT22;2265;48.794;9.520;2023-11-21T08:56:01;10.50;98.00
4505;DHT22;2265;48.794;9.520;2023-11-21T08:58:30;10.40;98.00
4505;DHT22;2265;48.794;9.520;2023-11-21T09:00:59;10.40;98.00
4505;DHT22;2265;48.794;9.520;2023-11-21T09:03:26;10.30;98.00
4505;DHT22;2265;48.794;9.520;2023-11-21T09:05:54;10.30;98.00
4505;DHT22;2265;48.794;9.520;2023-11-21T09:08:21;10.40;98.00
4505;DHT22;2265;48.794;9.520;2023-11-21T09:10:48;10.40;98.00
4505;DHT22;2265;48.794;9.520;2023-11-21T09:13:16;10.70;98.00
4505;DHT22;2265;48.794;9.520;2023-11-21T09:15:43;10.80;98.00
4505;DHT22;2265;48.794;9.520;2023-11-21T09:18:13;10.90;98.00
4505;DHT22;2265;48.794;9.520;2023-11-21T09:20:40;11.00;98.00
4505;DHT22;2265;48.794;9.520;2023-11-21T09:23:10;10.90;98.00
4505;DHT22;2265;48.794;9.520;2023-11-21T09:25:39;10.80;98.00
4505;DHT22;2265;48.794;9.520;2023-11-21T09:28:06;10.60;98.00
4505;DHT22;2265;48.794;9.520;2023-11-21T09:30:34;10.50;98.00
4505;DHT22;2265;48.794;9.520;2023-11-21T09:33:01;10.50;98.00
4505;DHT22;2265;48.794;9.520;2023-11-21T09:35:29;10.60;98.00
4505;DHT22;2265;48.794;9.520;2023-11-21T09:37:57;10.60;98.00
4505;DHT22;2265;48.794;9.520;2023-11-21T09:40:24;10.60;98.00
4505;DHT22;2265;48.794;9.520;2023-11-21T09:42:55;10.60;98.00
4505;DHT22;2265;48.794;9.520;2023-11-21T09:45:26;10.60;98.00
4505;DHT22;2265;48.794;9.520;2023-11-21T09:47:55;10.80;98.00
4505;DHT22;2265;48.794;9.520;2023-11-21T09:50:23;10.80;98.00
4505;DHT22;2265;48.794;9.520;2023-11-21T09:52:58;10.70;98.00
4505;DHT22;2265;48.794;9.520;2023-11-21T09:55:28;10.90;98.00
4505;DHT22;2265;48.794;9.520;2023-11-21T09:57:57;11.00;98.00
4505;DHT22;2265;48.794;9.520;2023-11-21T10:00:27;11.00;98.00
4505;DHT22;2265;48.794;9.520;2023-11-21T10:02:54;11.00;98.00
4505;DHT22;2265;48.794;9.520;2023-11-21T10:05:22;11.20;98.00
4505;DHT22;2265;48.794;9.520;2023-11-21T10:07:50;11.20;98.00
4505;DHT22;2265;48.794;9.520;2023-11-21T10:10:20;11.20;98.00
4505;DHT22;2265;48.794;9.520;2023-11-21T10:12:52;11.30;98.00
4505;DHT22;2265;48.794;9.520;2023-11-21T10:15:22;11.30;98.00
4505;DHT22;2265;48.794;9.520;2023-11-21T10:17:52;11.50;98.00
4505;DHT22;2265;48.794;9.520;2023-11-21T10:20:20;11.50;98.00
4505;DHT22;2265;48.794;9.520;2023-11-21T10:22:47;11.50;98.00
4505;DHT22;2265;48.794;9.520;2023-11-21T10:25:14;11.50;98.00
4505;DHT22;2265;48.794;9.520;2023-11-21T10:27:47;11.40;98.00
4505;DHT22;2265;48.794;9.520;2023-11-21T10:30:16;11.40;98.00
4505;DHT22;2265;48.794;9.520;2023-11-21T10:32:44;11.30;98.00
4505;DHT22;2265;48.794;9.520;2023-11-21T10:35:11;11.20;98.00
4505;DHT22;2265;48.794;9.520;2023-11-21T10:37:38;11.20;98.00
4505;DHT22;2265;48.794;9.520;2023-11-21T10:40:07;11.40;98.00
4505;DHT22;2265;48.794;9.520;2023-11-21T10:42:37;11.40;98.00
4505;DHT22;2265;48.794;9.520;2023-11-21T10:45:07;11.40;98.00
4505;DHT22;2265;48.794;9.520;2023-11-21T10:47:39;11.70;98.00
4505;DHT22;2265;48.794;9.520;2023-11-21T10:50:08;11.80;98.00
4505;DHT22;2265;48.794;9.520;2023-11-21T10:52:37;12.00;98.00
4505;DHT22;2265;48.794;9.520;2023-11-21T10:55:16;12.10;98.00
4505;DHT22;2265;48.794;9.520;2023-11-21T10:57:45;12.10;98.00
4505;DHT22;2265;48.794;9.520;2023-11-21T11:00:16;11.90;98.00
4505;DHT22;2265;48.794;9.520;2023-11-21T11:02:48;11.90;98.00
4505;DHT22;2265;48.794;9.520;2023-11-21T11:05:19;11.90;98.00
4505;DHT22;2265;48.794;9.520;2023-11-21T11:07:48;11.70;98.00
4505;DHT22;2265;48.794;9.520;2023-11-21T11:10:18;11.50;98.00
4505;DHT22;2265;48.794;9.520;2023-11-21T11:12:48;11.40;98.00
4505;DHT22;2265;48.794;9.520;2023-11-21T11:15:20;11.50;98.00
4505;DHT22;2265;48.794;9.520;2023-11-21T11:17:47;11.50;98.00
4505;DHT22;2265;48.794;9.520;2023-11-21T11:20:16;11.50;98.00
4505;DHT22;2265;48.794;9.520;2023-11-21T11:22:55;11.50;98.00
4505;DHT22;2265;48.794;9.520;2023-11-21T11:28:20;11.50;98.00
4505;DHT22;2265;48.794;9.520;2023-11-21T11:30:59;11.50;98.00
4505;DHT22;2265;48.794;9.520;2023-11-21T11:33:36;11.50;98.00
4505;DHT22;2265;48.794;9.520;2023-11-21T11:36:10;11.40;98.00
4505;DHT22;2265;48.794;9.520;2023-11-21T11:38:45;11.30;98.00
4505;DHT22;2265;48.794;9.520;2023-11-21T11:41:25;11.30;98.00
4505;DHT22;2265;48.794;9.520;2023-11-21T11:43:53;11.30;98.00
4505;DHT22;2265;48.794;9.520;2023-11-21T11:46:40;11.20;98.00
4505;DHT22;2265;48.794;9.520;2023-11-21T11:49:08;11.30;98.00
4505;DHT22;2265;48.794;9.520;2023-11-21T11:51:37;11.20;98.00
4505;DHT22;2265;48.794;9.520;2023-11-21T11:54:05;11.00;98.00
4505;DHT22;2265;48.794;9.520;2023-11-21T11:56:34;11.10;98.00
4505;DHT22;2265;48.794;9.520;2023-11-21T11:59:04;11.00;98.00
4505;DHT22;2265;48.794;9.520;2023-11-21T12:01:34;11.00;98.00
4505;DHT22;2265;48.794;9.520;2023-11-21T12:04:23;11.10;98.00
4505;DHT22;2265;48.794;9.520;2023-11-21T12:07:00;11.10;98.00
4505;DHT22;2265;48.794;9.520;2023-11-21T12:09:29;11.10;98.00
4505;DHT22;2265;48.794;9.520;2023-11-21T12:11:57;11.30;98.00
4505;DHT22;2265;48.794;9.520;2023-11-21T12:14:24;11.50;98.00
4505;DHT22;2265;48.794;9.520;2023-11-21T12:16:53;11.50;98.00
4505;DHT22;2265;48.794;9.520;2023-11-21T12:19:21;11.40;98.00
4505;DHT22;2265;48.794;9.520;2023-11-21T12:21:49;11.50;98.00
4505;DHT22;2265;48.794;9.520;2023-11-21T12:24:17;11.40;98.00
4505;DHT22;2265;48.794;9.520;2023-11-21T12:26:45;11.30;98.00
4505;DHT22;2265;48.794;9.520;2023-11-21T12:29:13;11.30;98.00
4505;DHT22;2265;48.794;9.520;2023-11-21T12:31:42;11.30;98.00
4505;DHT22;2265;48.794;9.520;2023-11-21T12:34:11;11.40;98.00
4505;DHT22;2265;48.794;9.520;2023-11-21T12:36:39;11.20;98.00
4505;DHT22;2265;48.794;9.520;2023-11-21T12:39:06;10.90;98.00
4505;DHT22;2265;48.794;9.520;2023-11-21T12:41:35;10.80;98.00
4505;DHT22;2265;48.794;9.520;2023-11-21T12:44:02;10.90;98.00
4505;DHT22;2265;48.794;9.520;2023-11-21T12:46:29;10.90;98.00
4505;DHT22;2265;48.794;9.520;2023-11-21T12:49:00;11.00;98.00
4505;DHT22;2265;48.794;9.520;2023-11-21T12:51:28;10.90;98.00
4505;DHT22;2265;48.794;9.520;2023-11-21T12:53:55;11.10;98.00
4505;DHT22;2265;48.794;9.520;2023-11-21T12:56:24;11.10;98.00
4505;DHT22;2265;48.794;9.520;2023-11-21T12:58:54;11.30;98.00
4505;DHT22;2265;48.794;9.520;2023-11-21T13:01:25;11.30;98.00
4505;DHT22;2265;48.794;9.520;2023-11-21T13:03:54;11.30;98.00
4505;DHT22;2265;48.794;9.520;2023-11-21T13:06:21;11.30;98.00
4505;DHT22;2265;48.794;9.520;2023-11-21T13:08:52;11.30;98.00
4505;DHT22;2265;48.794;9.520;2023-11-21T13:11:23;11.40;98.00
4505;DHT22;2265;48.794;9.520;2023-11-21T13:13:51;11.70;98.00
4505;DHT22;2265;48.794;9.520;2023-11-21T13:16:19;11.70;98.00
4505;DHT22;2265;48.794;9.520;2023-11-21T13:18:47;11.70;98.00
4505;DHT22;2265;48.794;9.520;2023-11-21T13:21:17;11.80;98.00
4505;DHT22;2265;48.794;9.520;2023-11-21T13:23:44;11.80;98.00
4505;DHT22;2265;48.794;9.520;2023-11-21T13:26:15;11.80;98.00
4505;DHT22;2265;48.794;9.520;2023-11-21T13:28:43;11.80;98.00
4505;DHT22;2265;48.794;9.520;2023-11-21T13:31:12;11.90;98.00
4505;DHT22;2265;48.794;9.520;2023-11-21T13:33:51;11.80;98.00
4505;DHT22;2265;48.794;9.520;2023-11-21T13:36:21;11.70;98.00
4505;DHT22;2265;48.794;9.520;2023-11-21T13:38:50;11.70;98.00
4505;DHT22;2265;48.794;9.520;2023-11-21T13:41:20;11.70;98.00
4505;DHT22;2265;48.794;9.520;2023-11-21T13:43:53;11.70;98.00
4505;DHT22;2265;48.794;9.520;2023-11-21T13:46:29;11.70;98.00
4505;DHT22;2265;48.794;9.520;2023-11-21T13:49:00;11.70;98.00
4505;DHT22;2265;48.794;9.520;2023-11-21T13:51:28;11.60;98.00
4505;DHT22;2265;48.794;9.520;2023-11-21T13:54:04;11.70;98.00
4505;DHT22;2265;48.794;9.520;2023-11-21T13:56:38;11.60;98.00
4505;DHT22;2265;48.794;9.520;2023-11-21T13:59:07;11.40;98.00
4505;DHT22;2265;48.794;9.520;2023-11-21T14:01:44;11.10;98.00
4505;DHT22;2265;48.794;9.520;2023-11-21T14:04:25;10.90;98.00
4505;DHT22;2265;48.794;9.520;2023-11-21T14:07:13;10.70;98.00
4505;DHT22;2265;48.794;9.520;2023-11-21T14:09:52;10.60;98.00
4505;DHT22;2265;48.794;9.520;2023-11-21T14:12:23;10.60;98.00
4505;DHT22;2265;48.794;9.520;2023-11-21T14:14:50;10.50;98.00
4505;DHT22;2265;48.794;9.520;2023-11-21T14:17:18;10.60;98.00
4505;DHT22;2265;48.794;9.520;2023-11-21T14:19:48;10.60;98.00
4505;DHT22;2265;48.794;9.520;2023-11-21T14:22:15;10.70;98.00
4505;DHT22;2265;48.794;9.520;2023-11-21T14:24:43;10.50;98.00
4505;DHT22;2265;48.794;9.520;2023-11-21T14:27:12;10.60;98.00
4505;DHT22;2265;48.794;9.520;2023-11-21T14:29:42;10.60;98.00
4505;DHT22;2265;48.794;9.520;2023-11-21T14:32:10;10.70;98.00
4505;DHT22;2265;48.794;9.520;2023-11-21T14:34:37;10.90;98.00
4505;DHT22;2265;48.794;9.520;2023-11-21T14:37:06;10.90;98.00
4505;DHT22;2265;48.794;9.520;2023-11-21T14:39:34;10.80;98.00
4505;DHT22;2265;48.794;9.520;2023-11-21T14:42:06;10.90;98.00
4505;DHT22;2265;48.794;9.520;2023-11-21T14:44:34;11.00;98.00
4505;DHT22;2265;48.794;9.520;2023-11-21T14:47:09;11.00;98.00
4505;DHT22;2265;48.794;9.520;2023-11-21T14:49:41;11.00;98.00
4505;DHT22;2265;48.794;9.520;2023-11-21T14:52:18;10.90;98.00
4505;DHT22;2265;48.794;9.520;2023-11-21T14:54:59;11.00;98.00
4505;DHT22;2265;48.794;9.520;2023-11-21T14:57:40;11.00;98.00
4505;DHT22;2265;48.794;9.520;2023-11-21T15:00:10;11.00;98.00
4505;DHT22;2265;48.794;9.520;2023-11-21T15:02:57;11.00;98.00
4505;DHT22;2265;48.794;9.520;2023-11-21T15:05:24;11.00;98.00
4505;DHT22;2265;48.794;9.520;2023-11-21T15:07:55;10.90;98.00
4505;DHT22;2265;48.794;9.520;2023-11-21T15:10:22;11.00;98.00
4505;DHT22;2265;48.794;9.520;2023-11-21T15:12:58;11.10;98.00
4505;DHT22;2265;48.794;9.520;2023-11-21T15:15:26;11.10;98.00
4505;DHT22;2265;48.794;9.520;2023-11-21T15:17:57;11.20;98.00
4505;DHT22;2265;48.794;9.520;2023-11-21T15:20:25;11.10;98.00
4505;DHT22;2265;48.794;9.520;2023-11-21T15:22:52;11.10;98.00
4505;DHT22;2265;48.794;9.520;2023-11-21T15:25:19;11.10;98.00
4505;DHT22;2265;48.794;9.520;2023-11-21T15:27:47;11.10;98.00
4505;DHT22;2265;48.794;9.520;2023-11-21T15:30:15;11.10;98.00
4505;DHT22;2265;48.794;9.520;2023-11-21T15:32:48;11.10;98.00
4505;DHT22;2265;48.794;9.520;2023-11-21T15:35:17;10.90;98.00
4505;DHT22;2265;48.794;9.520;2023-11-21T15:37:44;10.90;98.00
4505;DHT22;2265;48.794;9.520;2023-11-21T15:40:11;10.90;98.00
4505;DHT22;2265;48.794;9.520;2023-11-21T15:42:41;10.90;98.00
4505;DHT22;2265;48.794;9.520;2023-11-21T15:45:08;10.90;98.00
4505;DHT22;2265;48.794;9.520;2023-11-21T15:47:35;10.80;98.00
4505;DHT22;2265;48.794;9.520;2023-11-21T15:50:03;10.80;98.00
4505;DHT22;2265;48.794;9.520;2023-11-21T15:52:35;10.80;98.00
4505;DHT22;2265;48.794;9.520;2023-11-21T15:55:02;10.80;98.00
4505;DHT22;2265;48.794;9.520;2023-11-21T15:57:31;10.80;98.00
4505;DHT22;2265;48.794;9.520;2023-11-21T15:59:58;10.70;98.00
4505;DHT22;2265;48.794;9.520;2023-11-21T16:02:34;10.60;98.00
4505;DHT22;2265;48.794;9.520;2023-11-21T16:05:01;10.40;98.00
4505;DHT22;2265;48.794;9.520;2023-11-21T16:07:31;10.50;98.00
4505;DHT22;2265;48.794;9.520;2023-11-21T16:10:02;10.70;98.00
4505;DHT22;2265;48.794;9.520;2023-11-21T16:12:29;10.60;98.00
4505;DHT22;2265;48.794;9.520;2023-11-21T16:14:56;10.40;98.00
4505;DHT22;2265;48.794;9.520;2023-11-21T16:17:23;10.40;98.00
4505;DHT22;2265;48.794;9.520;2023-11-21T16:19:50;10.30;98.00
4505;DHT22;2265;48.794;9.520;2023-11-21T16:22:18;10.20;98.00